createdAt,value
2019-05-14T00:00:16.500Z,9.56
2019-05-14T00:05:17.639Z,9.82
2019-05-14T00:10:04.976Z,9.59
2019-05-14T00:15:25.286Z,10.91
2019-05-14T00:20:28.403Z,10.32
2019-05-14T00:25:16.901Z,10.90
2019-05-14T00:30:39.050Z,11.12
2019-05-14T00:35:41.422Z,11.05
2019-05-14T00:40:41.963Z,10.53
2019-05-14T00:45:41.891Z,11.07
2019-05-14T00:50:42.177Z,10.53
2019-05-14T01:00:37.162Z,11.42
2019-05-14T01:05:44.374Z,12.15
2019-05-14T01:11:05.819Z,12.36
2019-05-14T01:16:06.100Z,11.74
2019-05-14T01:20:54.418Z,13.00
2019-05-14T01:26:14.604Z,12.32
2019-05-14T01:31:14.975Z,13.54
2019-05-14T01:36:02.327Z,13.15
2019-05-14T01:46:13.355Z,14.17
2019-05-14T01:51:34.818Z,13.91
2019-05-14T01:56:34.991Z,14.14
2019-05-14T02:01:24.255Z,14.33
2019-05-14T02:06:32.475Z,15.33
2019-05-14T02:11:41.526Z,14.60
2019-05-14T02:16:48.283Z,15.61
2019-05-14T02:22:08.585Z,15.89
2019-05-14T02:26:55.827Z,14.96
2019-05-14T02:32:18.414Z,16.29
2019-05-14T02:37:19.387Z,15.74
2019-05-14T02:42:19.703Z,16.25
2019-05-14T02:47:04.999Z,16.58
2019-05-14T02:52:12.254Z,16.46
2019-05-14T02:57:33.376Z,15.92
2019-05-14T03:02:33.775Z,15.07
2019-05-14T03:07:34.780Z,16.67
2019-05-14T03:12:23.101Z,15.32
2019-05-14T03:17:31.433Z,16.77
2019-05-14T03:22:53.617Z,17.61
2019-05-14T03:27:49.755Z,16.57
2019-05-14T03:33:12.604Z,16.80
2019-05-14T03:38:09.480Z,17.74
2019-05-14T03:48:10.339Z,16.04
2019-05-14T03:53:10.089Z,15.14
2019-05-14T03:58:10.013Z,15.85
2019-05-14T04:03:00.240Z,16.11
2019-05-14T04:08:04.303Z,16.47
2019-05-14T04:13:12.635Z,16.45
2019-05-14T04:18:33.859Z,16.38
2019-05-14T04:23:33.958Z,18.18
2019-05-14T04:28:35.098Z,16.72
2019-05-14T04:33:39.044Z,16.46
2019-05-14T04:38:40.290Z,20.47
2019-05-14T04:43:39.983Z,18.30
2019-05-14T04:48:42.322Z,17.61
2019-05-14T04:53:39.307Z,17.42
2019-05-14T05:03:31.321Z,18.75
2019-05-14T05:08:49.774Z,17.69
2019-05-14T05:13:39.292Z,18.53
2019-05-14T05:18:43.865Z,17.23
2019-05-14T05:23:52.140Z,17.15
2019-05-14T05:29:13.611Z,17.13
2019-05-14T05:39:18.962Z,16.38
2019-05-14T05:44:18.859Z,16.71
2019-05-14T05:49:18.838Z,16.21
2019-05-14T05:50:28.528Z,18.87
2019-05-14T05:55:34.266Z,15.82
2019-05-14T06:00:41.654Z,17.21
2019-05-14T06:06:01.880Z,16.34
2019-05-14T06:11:02.087Z,15.21
2019-05-14T06:26:11.420Z,13.21
2019-05-14T06:30:59.015Z,11.98
2019-05-14T06:36:19.716Z,12.61
2019-05-14T06:41:19.557Z,11.90
2019-05-14T06:46:19.721Z,10.53
2019-05-14T06:47:40.181Z,10.54
2019-05-14T06:52:41.349Z,9.54
2019-05-14T06:57:41.701Z,8.24
2019-05-14T07:02:44.047Z,7.37
2019-05-14T07:07:42.293Z,6.94
2019-05-14T07:12:42.392Z,6.27
2019-05-14T07:17:43.594Z,5.89
2019-05-14T07:22:44.788Z,5.65
2019-05-14T07:27:44.905Z,5.05
2019-05-14T07:32:48.230Z,5.39
2019-05-14T07:37:33.914Z,5.74
2019-05-14T07:42:53.968Z,6.17
2019-05-14T07:47:55.012Z,6.27
2019-05-14T07:52:58.530Z,6.55
2019-05-14T07:57:43.753Z,5.43
2019-05-14T08:03:03.846Z,5.65
2019-05-14T08:07:53.217Z,5.61
2019-05-14T08:13:14.384Z,5.84
2019-05-14T08:23:03.744Z,5.44
2019-05-14T08:28:25.149Z,5.26
2019-05-14T08:33:12.503Z,5.09
2019-05-14T08:38:32.767Z,4.84
2019-05-14T08:43:32.799Z,4.52
2019-05-14T08:48:21.352Z,4.92
2019-05-14T08:53:41.471Z,3.90
2019-05-14T08:58:34.678Z,3.77
2019-05-14T09:03:49.127Z,4.09
2019-05-14T09:08:34.584Z,4.18
2019-05-14T09:13:41.901Z,4.39
2019-05-14T09:19:03.166Z,3.55
2019-05-14T09:24:03.434Z,3.69
2019-05-14T09:29:18.217Z,4.13
2019-05-14T09:33:51.398Z,4.28
2019-05-14T09:39:12.281Z,4.17
2019-05-14T09:49:19.565Z,4.20
2019-05-14T09:54:08.533Z,4.18
2019-05-14T09:59:14.131Z,4.97
2019-05-14T10:04:35.159Z,4.73
2019-05-14T10:09:38.884Z,5.93
2019-05-14T10:19:41.066Z,5.65
2019-05-14T10:29:49.062Z,4.76
2019-05-14T10:39:40.056Z,4.23
2019-05-14T10:45:01.209Z,4.39
2019-05-14T10:55:02.531Z,3.92
2019-05-14T11:00:03.770Z,3.51
2019-05-14T11:04:51.980Z,3.59
2019-05-14T11:10:13.474Z,3.51
2019-05-14T11:15:13.737Z,3.44
2019-05-14T11:20:01.427Z,3.52
2019-05-14T11:25:21.676Z,3.84
2019-05-14T11:30:21.848Z,3.74
2019-05-14T11:35:23.296Z,3.75
2019-05-14T11:40:10.739Z,3.70
2019-05-14T11:45:30.991Z,3.62
2019-05-14T11:50:31.409Z,3.46
2019-05-14T11:55:31.622Z,3.43
2019-05-14T12:00:31.966Z,3.29
2019-05-14T12:05:32.231Z,2.99
2019-05-14T12:20:30.080Z,2.79
2019-05-14T12:25:50.333Z,3.21
2019-05-14T12:30:50.742Z,2.94
2019-05-14T12:35:50.876Z,3.31
2019-05-14T12:40:39.246Z,3.45
2019-05-14T12:46:00.436Z,4.03
2019-05-14T12:51:00.677Z,3.92
2019-05-14T12:56:01.659Z,3.48
2019-05-14T13:00:50.199Z,3.50
2019-05-14T13:05:58.573Z,4.13
2019-05-14T13:11:18.320Z,3.47
2019-05-14T13:16:19.406Z,3.87
2019-05-14T13:21:05.862Z,3.69
2019-05-14T13:26:29.478Z,3.88
2019-05-14T13:31:29.330Z,3.66
2019-05-14T13:36:14.684Z,3.83
2019-05-14T13:41:34.837Z,3.57
2019-05-14T13:46:36.121Z,3.48
2019-05-14T13:51:29.425Z,3.52
2019-05-14T13:56:35.421Z,3.09
2019-05-14T14:06:51.027Z,3.31
2019-05-14T14:16:42.497Z,2.96
2019-05-14T14:22:04.071Z,2.96
2019-05-14T14:27:05.301Z,3.87
2019-05-14T14:32:11.108Z,3.14
2019-05-14T14:42:10.809Z,3.58
2019-05-14T14:47:11.674Z,3.06
2019-05-14T14:52:12.273Z,3.18
2019-05-14T15:02:03.354Z,3.01
2019-05-14T15:07:23.681Z,3.74
2019-05-14T15:12:24.043Z,3.11
2019-05-14T15:17:24.393Z,2.84
2019-05-14T15:22:25.680Z,2.39
2019-05-14T15:27:15.540Z,3.51
2019-05-14T15:32:35.686Z,3.00
2019-05-14T15:37:42.139Z,3.00
2019-05-14T15:52:48.513Z,2.68
2019-05-14T15:57:33.178Z,2.80
2019-05-14T16:02:42.446Z,2.84
2019-05-14T16:08:04.678Z,2.67
2019-05-14T16:13:05.282Z,2.87
2019-05-14T16:18:08.315Z,2.87
2019-05-14T16:28:02.913Z,2.80
2019-05-14T16:33:25.506Z,3.36
2019-05-14T16:38:28.331Z,3.87
2019-05-14T16:43:13.691Z,3.38
2019-05-14T16:48:33.787Z,3.08
2019-05-14T16:53:34.062Z,2.93
2019-05-14T16:58:22.590Z,3.08
2019-05-14T17:08:44.589Z,3.25
2019-05-14T17:13:34.242Z,3.27
2019-05-14T17:18:41.558Z,2.76
2019-05-14T17:24:02.825Z,3.21
2019-05-14T17:28:50.920Z,2.74
2019-05-14T17:33:59.358Z,2.91
2019-05-14T17:39:08.546Z,3.36
2019-05-14T17:44:27.042Z,2.93
2019-05-14T17:49:28.335Z,2.82
2019-05-14T17:54:15.585Z,2.63
2019-05-14T17:59:23.920Z,3.00
2019-05-14T18:04:31.357Z,2.51
2019-05-14T18:09:39.577Z,2.76
2019-05-14T18:14:48.217Z,2.76
2019-05-14T18:19:55.410Z,2.75
2019-05-14T18:25:02.608Z,2.72
2019-05-14T18:30:23.731Z,2.69
2019-05-14T18:35:12.633Z,2.98
2019-05-14T18:40:21.033Z,3.10
2019-05-14T18:45:41.344Z,3.17
2019-05-14T18:50:42.486Z,3.22
2019-05-14T18:55:30.889Z,2.86
2019-05-14T19:00:52.061Z,3.33
2019-05-14T19:05:52.403Z,2.96
2019-05-14T19:10:52.618Z,3.08
2019-05-14T19:20:43.938Z,3.22
2019-05-14T19:25:51.333Z,2.78
2019-05-14T19:31:01.950Z,3.15
2019-05-14T19:36:13.273Z,3.19
2019-05-14T19:41:13.382Z,3.26
2019-05-14T19:46:13.695Z,3.15
2019-05-14T19:51:13.749Z,2.99
2019-05-14T20:06:11.629Z,3.35
2019-05-14T20:11:31.712Z,3.17
2019-05-14T20:16:33.115Z,3.66
2019-05-14T20:21:20.346Z,3.57
2019-05-14T20:26:28.147Z,4.12
2019-05-14T20:31:48.222Z,4.05
2019-05-14T20:36:48.335Z,3.85
2019-05-14T20:46:39.170Z,4.14
2019-05-14T20:51:49.224Z,3.77
2019-05-14T20:56:54.569Z,4.03
2019-05-14T21:02:03.835Z,4.35
2019-05-14T21:07:24.165Z,4.48
2019-05-14T21:12:11.524Z,4.89
2019-05-14T21:17:31.781Z,5.24
2019-05-14T21:22:31.817Z,5.50
2019-05-14T21:27:20.107Z,5.35
2019-05-14T21:32:28.436Z,5.53
2019-05-14T21:37:39.054Z,5.72
2019-05-14T21:42:44.292Z,5.83
2019-05-14T21:48:04.568Z,6.27
2019-05-14T21:53:04.860Z,6.17
2019-05-14T21:58:05.002Z,6.21
2019-05-14T22:02:53.627Z,6.49
2019-05-14T22:08:00.892Z,6.77
2019-05-14T22:13:21.879Z,6.92
2019-05-14T22:18:17.580Z,7.38
2019-05-14T22:23:10.800Z,7.33
2019-05-14T22:28:31.996Z,7.86
2019-05-14T22:33:19.227Z,8.13
2019-05-14T22:38:29.398Z,8.00
2019-05-14T22:43:48.745Z,7.85
2019-05-14T22:48:48.897Z,8.27
2019-05-14T22:53:49.437Z,8.26
2019-05-14T23:03:49.950Z,9.04
2019-05-14T23:08:50.299Z,8.37
2019-05-14T23:13:50.427Z,8.51
2019-05-14T23:18:51.762Z,9.29
2019-05-14T23:23:39.351Z,8.89
2019-05-14T23:28:49.064Z,9.06
2019-05-14T23:34:07.374Z,8.79
2019-05-14T23:38:54.902Z,10.20
2019-05-14T23:49:05.246Z,11.58
2019-05-14T23:54:12.558Z,12.37
2019-05-14T23:59:19.870Z,13.21
